Time;durP1;ratioP1;P1;durP2;ratioP2;P2;SDS_P1;SDS_P2;PMS_P1;PMS_P2;Temp;Humidity;BMP_temperature;BMP_pressure;BME280_temperature;BME280_humidity;BME280_pressure;Samples;Min_cycle;Max_cycle;Signal;HPM_P1;HPM_P2
2024/04/02 00:00:30;;;;;;;;;;;;;;;;;;4985057;28;20101;-68
2024/04/02 00:02:56;;;;;;;;;;;;;;;;;;4986431;28;19997;-68
2024/04/02 00:05:21;;;;;;;;;;;;;;;;;;4986877;28;19922;-69
2024/04/02 00:07:46;;;;;;;;;;;;;;;;;;4988973;28;19996;-67
2024/04/02 00:10:11;;;;;;;;;;;;;;;;;;4986408;28;19922;-67
2024/04/02 00:12:36;;;;;;;;;;;;;;;;;;4993549;28;19929;-68
2024/04/02 00:15:05;;;;;;;;;;;;;;;;;;4994126;28;19967;-67
2024/04/02 00:17:30;;;;;;;;;;;;;;;;;;4981112;28;19965;-68
2024/04/02 00:19:56;;;;;;;;;;;;;;;;;;4989058;28;19988;-68
2024/04/02 00:22:21;;;;;;;;;;;;;;;;;;4988244;28;19918;-67
2024/04/02 00:24:46;;;;;;;;;;;;;;;;;;4988052;28;19929;-69
2024/04/02 00:27:11;;;;;;;;;;;;;;;;;;4988648;28;19918;-68
2024/04/02 00:29:36;;;;;;;;;;;;;;;;;;4988185;28;20371;-67
2024/04/02 00:32:01;;;;;;;;;;;;;;;;;;4988337;28;19926;-67
2024/04/02 00:34:26;;;;;;;;;;;;;;;;;;4988068;28;19965;-67
2024/04/02 00:36:51;;;;;;;;;;;;;;;;;;4988737;28;19922;-68
2024/04/02 00:39:16;;;;;;;;;;;;;;;;;;4988412;28;20404;-68
2024/04/02 00:41:41;;;;;;;;;;;;;;;;;;4988563;28;19980;-67
2024/04/02 00:44:07;;;;;;;;;;;;;;;;;;4987484;28;19921;-68
2024/04/02 00:46:32;;;;;;;;;;;;;;;;;;4988224;28;20142;-69
2024/04/02 00:48:57;;;;;;;;;;;;;;;;;;4988396;28;20359;-68
2024/04/02 00:51:22;;;;;;;;;;;;;;;;;;4988071;28;20029;-70
2024/04/02 00:53:47;;;;;;;;;;;;;;;;;;4988297;28;20005;-67
2024/04/02 00:56:12;;;;;;;;;;;;;;;;;;4987748;28;20318;-68
2024/04/02 00:58:38;;;;;;;;;;;;;;;;;;4987992;28;19921;-69
2024/04/02 01:01:03;;;;;;;;;;;;;;;;;;4987199;28;19926;-68
2024/04/02 01:03:28;;;;;;;;;;;;;;;;;;4987820;28;19921;-66
2024/04/02 01:05:53;;;;;;;;;;;;;;;;;;4987964;28;19921;-66
2024/04/02 01:08:18;;;;;;;;;;;;;;;;;;4994702;28;20439;-66
2024/04/02 01:10:43;;;;;;;;;;;;;;;;;;4987942;28;19984;-66
2024/04/02 01:13:08;;;;;;;;;;;;;;;;;;4987865;28;19918;-66
2024/04/02 01:15:33;;;;;;;;;;;;;;;;;;4987663;28;19953;-67
2024/04/02 01:17:58;;;;;;;;;;;;;;;;;;4987677;28;19922;-66
2024/04/02 01:20:23;;;;;;;;;;;;;;;;;;4987048;28;19926;-67
2024/04/02 01:22:49;;;;;;;;;;;;;;;;;;4987666;28;19921;-67
2024/04/02 01:25:14;;;;;;;;;;;;;;;;;;4986083;28;20190;-66
2024/04/02 01:27:39;;;;;;;;;;;;;;;;;;4986384;28;19917;-66
2024/04/02 01:30:04;;;;;;;;;;;;;;;;;;4987322;28;19930;-66
2024/04/02 01:32:29;;;;;;;;;;;;;;;;;;4986727;28;20503;-66
2024/04/02 01:34:56;;;;;;;;;;;;;;;;;;4987469;28;19972;-66
2024/04/02 01:37:21;;;;;;;;;;;;;;;;;;4990196;28;20418;-66
2024/04/02 01:39:46;;;;;;;;;;;;;;;;;;4986868;28;20455;-66
2024/04/02 01:42:11;;;;;;;;;;;;;;;;;;4986654;28;19984;-66
2024/04/02 01:44:36;;;;;;;;;;;;;;;;;;4987092;28;19938;-66
2024/04/02 01:47:01;;;;;;;;;;;;;;;;;;4987475;28;19925;-66
2024/04/02 01:49:26;;;;;;;;;;;;;;;;;;4987130;28;19918;-66
2024/04/02 01:51:51;;;;;;;;;;;;;;;;;;4987185;28;20013;-66
2024/04/02 01:54:16;;;;;;;;;;;;;;;;;;4986492;28;19949;-65
2024/04/02 01:56:42;;;;;;;;;;;;;;;;;;4987111;28;19960;-66
2024/04/02 01:59:07;;;;;;;;;;;;;;;;;;4986980;28;19926;-66
2024/04/02 02:01:32;;;;;;;;;;;;;;;;;;4987420;28;19926;-66
2024/04/02 02:03:57;;;;;;;;;;;;;;;;;;4986097;28;20435;-67
2024/04/02 02:06:22;;;;;;;;;;;;;;;;;;4985835;28;20399;-66
2024/04/02 02:08:49;;;;;;;;;;;;;;;;;;4987094;28;19926;-66
2024/04/02 02:11:14;;;;;;;;;;;;;;;;;;4986986;28;20322;-66
2024/04/02 02:13:39;;;;;;;;;;;;;;;;;;4989386;28;20437;-65
2024/04/02 02:16:04;;;;;;;;;;;;;;;;;;4990671;28;19917;-66
2024/04/02 02:18:29;;;;;;;;;;;;;;;;;;4989430;28;19960;-66
2024/04/02 02:20:55;;;;;;;;;;;;;;;;;;4991105;28;20393;-66
2024/04/02 02:23:20;;;;;;;;;;;;;;;;;;4990656;28;20291;-67
2024/04/02 02:25:45;;;;;;;;;;;;;;;;;;4989600;28;20226;-66
2024/04/02 02:28:10;;;;;;;;;;;;;;;;;;4990382;28;19925;-67
2024/04/02 02:30:35;;;;;;;;;;;;;;;;;;4990774;28;20386;-67
2024/04/02 02:33:00;;;;;;;;;;;;;;;;;;4990835;28;19953;-67
2024/04/02 02:35:26;;;;;;;;;;;;;;;;;;4990576;28;19921;-66
2024/04/02 02:37:51;;;;;;;;;;;;;;;;;;4993466;28;19969;-67
2024/04/02 02:40:16;;;;;;;;;;;;;;;;;;4989443;28;20087;-67
2024/04/02 02:42:41;;;;;;;;;;;;;;;;;;4991060;28;19918;-66
2024/04/02 02:45:06;;;;;;;;;;;;;;;;;;4990523;28;20398;-69
2024/04/02 02:47:31;;;;;;;;;;;;;;;;;;4984787;28;19917;-68
2024/04/02 02:49:56;;;;;;;;;;;;;;;;;;4989571;28;19926;-69
2024/04/02 02:52:21;;;;;;;;;;;;;;;;;;4987908;28;19933;-68
2024/04/02 02:54:46;;;;;;;;;;;;;;;;;;4988521;28;19926;-68
2024/04/02 02:57:11;;;;;;;;;;;;;;;;;;4990094;28;20346;-68
2024/04/02 02:59:36;;;;;;;;;;;;;;;;;;4987151;28;20443;-69
2024/04/02 03:02:01;;;;;;;;;;;;;;;;;;4989370;28;19968;-68
2024/04/02 03:04:27;;;;;;;;;;;;;;;;;;4989720;28;20025;-68
2024/04/02 03:06:52;;;;;;;;;;;;;;;;;;4990305;28;19926;-69
2024/04/02 03:09:17;;;;;;;;;;;;;;;;;;4985249;28;19960;-68
2024/04/02 03:11:42;;;;;;;;;;;;;;;;;;4990096;28;19922;-68
2024/04/02 03:14:07;;;;;;;;;;;;;;;;;;4989540;28;20021;-68
2024/04/02 03:16:32;;;;;;;;;;;;;;;;;;4988470;28;20641;-68
2024/04/02 03:18:57;;;;;;;;;;;;;;;;;;4989708;28;19922;-66
2024/04/02 03:21:22;;;;;;;;;;;;;;;;;;4988631;28;19926;-67
2024/04/02 03:23:47;;;;;;;;;;;;;;;;;;4989880;28;19930;-67
2024/04/02 03:26:13;;;;;;;;;;;;;;;;;;4989904;28;19922;-66
2024/04/02 03:28:39;;;;;;;;;;;;;;;;;;4996832;28;19949;-67
2024/04/02 03:31:04;;;;;;;;;;;;;;;;;;4989961;28;19926;-66
2024/04/02 03:33:29;;;;;;;;;;;;;;;;;;4989494;28;19929;-67
2024/04/02 03:35:54;;;;;;;;;;;;;;;;;;4988831;28;19921;-67
2024/04/02 03:38:19;;;;;;;;;;;;;;;;;;4991665;28;20311;-67
2024/04/02 03:40:44;;;;;;;;;;;;;;;;;;4991923;28;19921;-67
2024/04/02 03:43:09;;;;;;;;;;;;;;;;;;4989762;28;19929;-67
2024/04/02 03:45:34;;;;;;;;;;;;;;;;;;4989337;28;19921;-66
2024/04/02 03:47:59;;;;;;;;;;;;;;;;;;4988368;28;19963;-67
2024/04/02 03:50:25;;;;;;;;;;;;;;;;;;4987545;28;19930;-67
2024/04/02 03:52:50;;;;;;;;;;;;;;;;;;4989679;28;20322;-67
2024/04/02 03:55:15;;;;;;;;;;;;;;;;;;4988524;28;19936;-67
2024/04/02 03:57:40;;;;;;;;;;;;;;;;;;4989058;28;19918;-67
2024/04/02 04:00:05;;;;;;;;;;;;;;;;;;4988773;28;19921;-66
2024/04/02 04:02:30;;;;;;;;;;;;;;;;;;4988739;28;20383;-66
2024/04/02 04:04:56;;;;;;;;;;;;;;;;;;4988330;28;20009;-67
2024/04/02 04:07:21;;;;;;;;;;;;;;;;;;4989063;28;19922;-66
2024/04/02 04:09:46;;;;;;;;;;;;;;;;;;4988561;28;20206;-66
2024/04/02 04:12:11;;;;;;;;;;;;;;;;;;4990137;28;19972;-67
2024/04/02 04:14:36;;;;;;;;;;;;;;;;;;4989230;28;20012;-66
2024/04/02 04:17:01;;;;;;;;;;;;;;;;;;4988760;28;19929;-67
2024/04/02 04:19:26;;;;;;;;;;;;;;;;;;4987732;28;20268;-67
2024/04/02 04:21:51;;;;;;;;;;;;;;;;;;4988562;28;19926;-67
2024/04/02 04:24:16;;;;;;;;;;;;;;;;;;4986910;28;19930;-67
2024/04/02 04:26:41;;;;;;;;;;;;;;;;;;4989093;28;19929;-67
2024/04/02 04:29:06;;;;;;;;;;;;;;;;;;4988512;28;19922;-67
2024/04/02 04:31:32;;;;;;;;;;;;;;;;;;4987651;28;19926;-67
2024/04/02 04:33:57;;;;;;;;;;;;;;;;;;4988697;28;19961;-67
2024/04/02 04:36:22;;;;;;;;;;;;;;;;;;4989759;28;20397;-67
2024/04/02 04:38:47;;;;;;;;;;;;;;;;;;4988194;28;20387;-67
2024/04/02 04:41:12;;;;;;;;;;;;;;;;;;4987798;28;19953;-67
2024/04/02 04:43:37;;;;;;;;;;;;;;;;;;4988241;28;19925;-67
2024/04/02 04:46:05;;;;;;;;;;;;;;;;;;4988922;28;20318;-67
2024/04/02 04:48:30;;;;;;;;;;;;;;;;;;4987326;28;19922;-67
2024/04/02 04:50:56;;;;;;;;;;;;;;;;;;4987156;28;19930;-67
2024/04/02 04:53:21;;;;;;;;;;;;;;;;;;4988651;28;20316;-67
2024/04/02 04:55:46;;;;;;;;;;;;;;;;;;4988230;28;19926;-67
2024/04/02 04:58:11;;;;;;;;;;;;;;;;;;4987930;28;19961;-67
2024/04/02 05:00:36;;;;;;;;;;;;;;;;;;4989779;28;20025;-67
2024/04/02 05:03:01;;;;;;;;;;;;;;;;;;4990939;28;19917;-66
2024/04/02 05:05:26;;;;;;;;;;;;;;;;;;4995306;28;20272;-67
2024/04/02 05:07:51;;;;;;;;;;;;;;;;;;4989435;28;19918;-67
2024/04/02 05:10:16;;;;;;;;;;;;;;;;;;4988322;28;19976;-67
2024/04/02 05:12:41;;;;;;;;;;;;;;;;;;4988238;28;20000;-67
2024/04/02 05:15:07;;;;;;;;;;;;;;;;;;4988525;28;19928;-67
2024/04/02 05:17:32;;;;;;;;;;;;;;;;;;4987896;28;19924;-66
2024/04/02 05:19:58;;;;;;;;;;;;;;;;;;4988634;28;20374;-67
2024/04/02 05:22:23;;;;;;;;;;;;;;;;;;4987584;28;20338;-67
2024/04/02 05:24:48;;;;;;;;;;;;;;;;;;4986549;28;19969;-66
2024/04/02 05:27:13;;;;;;;;;;;;;;;;;;4987161;28;19928;-67
2024/04/02 05:29:38;;;;;;;;;;;;;;;;;;4986839;28;19944;-67
2024/04/02 05:32:03;;;;;;;;;;;;;;;;;;4986126;28;19925;-67
2024/04/02 05:34:28;;;;;;;;;;;;;;;;;;4986218;28;19925;-67
2024/04/02 05:36:53;;;;;;;;;;;;;;;;;;4992347;28;19976;-66
2024/04/02 05:39:18;;;;;;;;;;;;;;;;;;4985808;28;19921;-67
2024/04/02 05:41:43;;;;;;;;;;;;;;;;;;4989473;28;20386;-66
2024/04/02 05:44:09;;;;;;;;;;;;;;;;;;5018472;28;19942;-67
2024/04/02 05:46:34;;;;;;;;;;;;;;;;;;4990288;28;19929;-66
2024/04/02 05:48:59;;;;;;;;;;;;;;;;;;4993647;28;20369;-67
2024/04/02 05:51:24;;;;;;;;;;;;;;;;;;4985198;28;19929;-67
2024/04/02 05:53:49;;;;;;;;;;;;;;;;;;4986916;28;19925;-67
2024/04/02 05:56:14;;;;;;;;;;;;;;;;;;4986553;28;19933;-67
2024/04/02 05:58:39;;;;;;;;;;;;;;;;;;4986393;28;20497;-66
2024/04/02 06:01:04;;;;;;;;;;;;;;;;;;4986273;28;20272;-67
2024/04/02 06:03:29;;;;;;;;;;;;;;;;;;4985299;28;19922;-67
2024/04/02 06:05:55;;;;;;;;;;;;;;;;;;4987537;28;19929;-66
2024/04/02 06:08:20;;;;;;;;;;;;;;;;;;4985348;28;19982;-66
2024/04/02 06:10:45;;;;;;;;;;;;;;;;;;4986200;28;20299;-67
2024/04/02 06:13:10;;;;;;;;;;;;;;;;;;4986246;28;19940;-66
2024/04/02 06:15:35;;;;;;;;;;;;;;;;;;4995080;28;20391;-67
2024/04/02 06:18:00;;;;;;;;;;;;;;;;;;4987027;28;19929;-67
2024/04/02 06:20:25;;;;;;;;;;;;;;;;;;4986118;28;20822;-66
2024/04/02 06:22:51;;;;;;;;;;;;;;;;;;4986230;28;19933;-67
2024/04/02 06:25:16;;;;;;;;;;;;;;;;;;4986789;28;19925;-66
2024/04/02 06:27:42;;;;;;;;;;;;;;;;;;4986710;28;19925;-66
2024/04/02 06:30:07;;;;;;;;;;;;;;;;;;4987166;28;20263;-67
2024/04/02 06:32:32;;;;;;;;;;;;;;;;;;4986670;28;19941;-67
2024/04/02 06:34:57;;;;;;;;;;;;;;;;;;4985828;28;20271;-67
2024/04/02 06:37:22;;;;;;;;;;;;;;;;;;5020812;28;19922;-67
2024/04/02 06:39:47;;;;;;;;;;;;;;;;;;4986071;28;19976;-67
2024/04/02 06:42:12;;;;;;;;;;;;;;;;;;4986731;28;19945;-67
2024/04/02 06:44:37;;;;;;;;;;;;;;;;;;4986889;28;19956;-66
2024/04/02 06:47:02;;;;;;;;;;;;;;;;;;4987546;28;20366;-67
2024/04/02 06:49:27;;;;;;;;;;;;;;;;;;4987518;28;19921;-66
2024/04/02 06:51:53;;;;;;;;;;;;;;;;;;4986217;28;19934;-67
2024/04/02 06:54:19;;;;;;;;;;;;;;;;;;4986416;28;19968;-67
2024/04/02 06:56:44;;;;;;;;;;;;;;;;;;4986670;28;20334;-66
2024/04/02 06:59:09;;;;;;;;;;;;;;;;;;4988319;28;19972;-66
2024/04/02 07:01:34;;;;;;;;;;;;;;;;;;4990320;28;20010;-66
2024/04/02 07:03:59;;;;;;;;;;;;;;;;;;4990128;28;19922;-66
2024/04/02 07:06:24;;;;;;;;;;;;;;;;;;5021035;28;20445;-66
2024/04/02 07:08:49;;;;;;;;;;;;;;;;;;4990030;28;19976;-67
2024/04/02 07:11:14;;;;;;;;;;;;;;;;;;4990466;28;19921;-66
2024/04/02 07:13:40;;;;;;;;;;;;;;;;;;4989754;28;20286;-66
2024/04/02 07:16:05;;;;;;;;;;;;;;;;;;4989590;28;20433;-67
2024/04/02 07:18:35;;;;;;;;;;;;;;;;;;4988013;28;20395;-66
2024/04/02 07:21:00;;;;;;;;;;;;;;;;;;4987952;28;19928;-67
2024/04/02 07:23:25;;;;;;;;;;;;;;;;;;4989934;28;19921;-66
2024/04/02 07:25:50;;;;;;;;;;;;;;;;;;4989758;28;19918;-66
2024/04/02 07:28:15;;;;;;;;;;;;;;;;;;4989437;28;19918;-66
2024/04/02 07:30:40;;;;;;;;;;;;;;;;;;4989510;28;19922;-66
2024/04/02 07:33:05;;;;;;;;;;;;;;;;;;4989560;28;20540;-66
2024/04/02 07:35:30;;;;;;;;;;;;;;;;;;4990165;28;20117;-66
2024/04/02 07:37:55;;;;;;;;;;;;;;;;;;4995576;28;19922;-67
2024/04/02 07:40:20;;;;;;;;;;;;;;;;;;4989202;28;22460;-66
2024/04/02 07:42:46;;;;;;;;;;;;;;;;;;5020704;28;19917;-66
2024/04/02 07:45:11;;;;;;;;;;;;;;;;;;4989796;28;19918;-67
2024/04/02 07:47:36;;;;;;;;;;;;;;;;;;4987487;28;19984;-67
2024/04/02 07:50:03;;;;;;;;;;;;;;;;;;4989357;28;20189;-65
2024/04/02 07:52:28;;;;;;;;;;;;;;;;;;4989213;28;19926;-66
2024/04/02 07:54:53;;;;;;;;;;;;;;;;;;4989672;28;19959;-66
2024/04/02 07:57:18;;;;;;;;;;;;;;;;;;4989404;28;19917;-67
2024/04/02 07:59:43;;;;;;;;;;;;;;;;;;4988912;28;20172;-67
2024/04/02 08:02:09;;;;;;;;;;;;;;;;;;4989053;28;19973;-67
2024/04/02 08:04:34;;;;;;;;;;;;;;;;;;4988984;28;20190;-66
2024/04/02 08:06:59;;;;;;;;;;;;;;;;;;5020774;28;20402;-66
2024/04/02 08:09:24;;;;;;;;;;;;;;;;;;4989459;28;19918;-66
2024/04/02 08:11:50;;;;;;;;;;;;;;;;;;4987902;28;19976;-67
2024/04/02 08:14:15;;;;;;;;;;;;;;;;;;4988649;28;19928;-66
2024/04/02 08:16:40;;;;;;;;;;;;;;;;;;4988052;28;19992;-66
2024/04/02 08:19:05;;;;;;;;;;;;;;;;;;4989401;28;19917;-65
2024/04/02 08:21:30;;;;;;;;;;;;;;;;;;5020483;28;19927;-66
2024/04/02 08:23:55;;;;;;;;;;;;;;;;;;4989128;28;19918;-66
2024/04/02 08:26:20;;;;;;;;;;;;;;;;;;4988351;28;19918;-66
2024/04/02 08:28:45;;;;;;;;;;;;;;;;;;4988416;28;19922;-67
2024/04/02 08:31:10;;;;;;;;;;;;;;;;;;4995828;28;19922;-66
2024/04/02 08:33:36;;;;;;;;;;;;;;;;;;4988919;28;19929;-66
2024/04/02 08:36:01;;;;;;;;;;;;;;;;;;4988805;28;19957;-66
2024/04/02 08:38:26;;;;;;;;;;;;;;;;;;4993185;28;19922;-66
2024/04/02 08:40:51;;;;;;;;;;;;;;;;;;4988798;28;20407;-65
2024/04/02 08:43:16;;;;;;;;;;;;;;;;;;4988204;28;19980;-66
2024/04/02 08:45:43;;;;;;;;;;;;;;;;;;4988130;28;20264;-65
2024/04/02 08:48:10;;;;;;;;;;;;;;;;;;4987961;28;20313;-66
2024/04/02 08:50:35;;;;;;;;;;;;;;;;;;4987143;28;20393;-65
2024/04/02 08:53:01;;;;;;;;;;;;;;;;;;4988454;28;20385;-65
2024/04/02 08:55:26;;;;;;;;;;;;;;;;;;4988242;28;19932;-65
2024/04/02 08:57:51;;;;;;;;;;;;;;;;;;4988018;28;19925;-66
2024/04/02 09:00:16;;;;;;;;;;;;;;;;;;4987311;28;19921;-66
2024/04/02 09:02:41;;;;;;;;;;;;;;;;;;4987181;28;20306;-66
2024/04/02 09:05:06;;;;;;;;;;;;;;;;;;4991829;28;20052;-66
2024/04/02 09:07:31;;;;;;;;;;;;;;;;;;4995028;28;19925;-66
2024/04/02 09:09:56;;;;;;;;;;;;;;;;;;4991806;28;19972;-66
2024/04/02 09:12:22;;;;;;;;;;;;;;;;;;4994844;28;20024;-66
2024/04/02 09:14:47;;;;;;;;;;;;;;;;;;4987497;28;19928;-66
2024/04/02 09:17:12;;;;;;;;;;;;;;;;;;4986923;28;19922;-66
2024/04/02 09:19:37;;;;;;;;;;;;;;;;;;4987142;28;19945;-66
2024/04/02 09:22:02;;;;;;;;;;;;;;;;;;4986755;28;19961;-66
2024/04/02 09:24:27;;;;;;;;;;;;;;;;;;4987332;28;19980;-66
2024/04/02 09:26:52;;;;;;;;;;;;;;;;;;4987172;28;19922;-66
2024/04/02 09:29:17;;;;;;;;;;;;;;;;;;4986639;28;19917;-66
2024/04/02 09:31:43;;;;;;;;;;;;;;;;;;4989555;28;20370;-66
2024/04/02 09:34:08;;;;;;;;;;;;;;;;;;4985621;28;19964;-66
2024/04/02 09:36:33;;;;;;;;;;;;;;;;;;4991873;28;19956;-66
2024/04/02 09:38:58;;;;;;;;;;;;;;;;;;4986941;28;19949;-66
2024/04/02 09:41:26;;;;;;;;;;;;;;;;;;4986692;28;19930;-66
2024/04/02 09:43:51;;;;;;;;;;;;;;;;;;4986235;28;19921;-66
2024/04/02 09:46:16;;;;;;;;;;;;;;;;;;4986062;28;19918;-66
2024/04/02 09:48:42;;;;;;;;;;;;;;;;;;4986293;28;19929;-66
2024/04/02 09:51:07;;;;;;;;;;;;;;;;;;4986416;28;19930;-66
2024/04/02 09:53:32;;;;;;;;;;;;;;;;;;4986461;28;19922;-66
2024/04/02 09:55:57;;;;;;;;;;;;;;;;;;4988018;28;20006;-66
2024/04/02 09:58:22;;;;;;;;;;;;;;;;;;4988104;28;19917;-66
2024/04/02 10:00:47;;;;;;;;;;;;;;;;;;4986822;28;20310;-66
2024/04/02 10:03:12;;;;;;;;;;;;;;;;;;4994176;28;19929;-66
2024/04/02 10:05:37;;;;;;;;;;;;;;;;;;4986089;28;19925;-67
2024/04/02 10:08:03;;;;;;;;;;;;;;;;;;4985749;28;20372;-67
2024/04/02 10:10:29;;;;;;;;;;;;;;;;;;4986251;28;20326;-66
2024/04/02 10:12:54;;;;;;;;;;;;;;;;;;4987628;28;19937;-66
2024/04/02 10:15:19;;;;;;;;;;;;;;;;;;4986590;28;20009;-66
2024/04/02 10:17:44;;;;;;;;;;;;;;;;;;4986348;28;19944;-66
2024/04/02 10:20:09;;;;;;;;;;;;;;;;;;4987062;28;19925;-66
2024/04/02 10:22:36;;;;;;;;;;;;;;;;;;4987017;28;19921;-66
2024/04/02 10:25:01;;;;;;;;;;;;;;;;;;4985911;28;19918;-67
2024/04/02 10:27:26;;;;;;;;;;;;;;;;;;4985053;28;19932;-66
2024/04/02 10:29:51;;;;;;;;;;;;;;;;;;4985919;28;19918;-66
2024/04/02 10:32:16;;;;;;;;;;;;;;;;;;4993144;28;19934;-66
2024/04/02 10:34:41;;;;;;;;;;;;;;;;;;4988920;28;20338;-66
2024/04/02 10:37:10;;;;;;;;;;;;;;;;;;4996811;28;19922;-66
2024/04/02 10:39:35;;;;;;;;;;;;;;;;;;4989659;28;19924;-66
2024/04/02 10:42:03;;;;;;;;;;;;;;;;;;4991037;28;19922;-66
2024/04/02 10:44:28;;;;;;;;;;;;;;;;;;4988771;28;20434;-66
2024/04/02 10:46:53;;;;;;;;;;;;;;;;;;4989805;28;20017;-66
2024/04/02 10:49:18;;;;;;;;;;;;;;;;;;4989567;28;19926;-66
2024/04/02 10:51:43;;;;;;;;;;;;;;;;;;4989734;28;19926;-66
2024/04/02 10:54:08;;;;;;;;;;;;;;;;;;4989481;28;19973;-67
2024/04/02 10:56:34;;;;;;;;;;;;;;;;;;5001833;28;19922;-66
2024/04/02 10:58:59;;;;;;;;;;;;;;;;;;5010102;28;19992;-66
2024/04/02 11:01:24;;;;;;;;;;;;;;;;;;5008771;28;19926;-67
2024/04/02 11:03:49;;;;;;;;;;;;;;;;;;5010506;28;19995;-66
2024/04/02 11:06:15;;;;;;;;;;;;;;;;;;5012155;28;19925;-66
2024/04/02 11:08:40;;;;;;;;;;;;;;;;;;5008382;28;19922;-66
2024/04/02 11:11:06;;;;;;;;;;;;;;;;;;5014746;28;20019;-66
2024/04/02 11:13:31;;;;;;;;;;;;;;;;;;5019621;28;19922;-67
2024/04/02 11:15:56;;;;;;;;;;;;;;;;;;4999928;28;19925;-66
2024/04/02 11:18:21;;;;;;;;;;;;;;;;;;4992892;28;19922;-66
2024/04/02 11:20:46;;;;;;;;;;;;;;;;;;4990602;28;19925;-66
2024/04/02 11:25:55;;;;;;;;;;;;;;;;;;4988873;28;19945;-66
2024/04/02 11:28:20;;;;;;;;;;;;;;;;;;5004470;28;20298;-66
2024/04/02 11:30:45;;;;;;;;;;;;;;;;;;4994735;28;20375;-66
2024/04/02 11:33:10;;;;;;;;;;;;;;;;;;4995077;28;19926;-66
2024/04/02 11:35:35;;;;;;;;;;;;;;;;;;4993441;28;19922;-67
2024/04/02 11:38:01;;;;;;;;;;;;;;;;;;4991016;28;19918;-67
2024/04/02 11:40:26;;;;;;;;;;;;;;;;;;4989467;28;19921;-67
2024/04/02 11:42:51;;;;;;;;;;;;;;;;;;4989846;28;19953;-67
2024/04/02 11:45:17;;;;;;;;;;;;;;;;;;4995191;28;19929;-67
2024/04/02 11:47:42;;;;;;;;;;;;;;;;;;5010189;28;20510;-66
2024/04/02 11:50:07;;;;;;;;;;;;;;;;;;5022157;28;19929;-67
2024/04/02 11:52:32;;;;;;;;;;;;;;;;;;5017819;28;20322;-67
2024/04/02 11:54:57;;;;;;;;;;;;;;;;;;5022685;28;19929;-67
2024/04/02 12:00:14;;;;;;;;;;;;;;;;;;5010552;28;20153;-68
2024/04/02 12:02:40;;;;;;;;;;;;;;;;;;5008325;28;19963;-67
2024/04/02 12:05:05;;;;;;;;;;;;;;;;;;5008068;28;20390;-67
2024/04/02 12:07:30;;;;;;;;;;;;;;;;;;5012927;28;20302;-67
2024/04/02 12:09:56;;;;;;;;;;;;;;;;;;5008689;28;19917;-67
2024/04/02 12:12:21;;;;;;;;;;;;;;;;;;5007685;28;20377;-66
2024/04/02 12:14:46;;;;;;;;;;;;;;;;;;5007836;28;19921;-67
2024/04/02 12:17:11;;;;;;;;;;;;;;;;;;5010354;28;19929;-66
2024/04/02 12:19:36;;;;;;;;;;;;;;;;;;5014925;28;19925;-67
2024/04/02 12:22:01;;;;;;;;;;;;;;;;;;5008156;28;19918;-66
2024/04/02 12:24:26;;;;;;;;;;;;;;;;;;5007135;28;19929;-66
2024/04/02 12:26:51;;;;;;;;;;;;;;;;;;5008274;28;19925;-66
2024/04/02 12:29:17;;;;;;;;;;;;;;;;;;5008956;28;19925;-67
2024/04/02 12:31:42;;;;;;;;;;;;;;;;;;5013639;28;19945;-66
2024/04/02 12:34:07;;;;;;;;;;;;;;;;;;5006853;28;19957;-67
2024/04/02 12:36:32;;;;;;;;;;;;;;;;;;5012573;28;20008;-66
2024/04/02 12:38:57;;;;;;;;;;;;;;;;;;5008754;28;19931;-67
2024/04/02 12:41:22;;;;;;;;;;;;;;;;;;4996315;28;19936;-66
2024/04/02 12:43:47;;;;;;;;;;;;;;;;;;4988195;28;20291;-67
2024/04/02 12:46:12;;;;;;;;;;;;;;;;;;4986556;28;20143;-67
2024/04/02 12:48:37;;;;;;;;;;;;;;;;;;4987626;28;19917;-67
2024/04/02 12:51:03;;;;;;;;;;;;;;;;;;4987455;28;19926;-67
2024/04/02 12:53:28;;;;;;;;;;;;;;;;;;4988048;28;19941;-67
2024/04/02 12:55:54;;;;;;;;;;;;;;;;;;4987591;28;19926;-66
2024/04/02 12:58:19;;;;;;;;;;;;;;;;;;4987548;28;19941;-67
2024/04/02 13:00:44;;;;;;;;;;;;;;;;;;4988301;28;19914;-67
2024/04/02 13:03:09;;;;;;;;;;;;;;;;;;4986432;28;20272;-67
2024/04/02 13:05:34;;;;;;;;;;;;;;;;;;4986143;28;19917;-67
2024/04/02 13:08:00;;;;;;;;;;;;;;;;;;4987930;28;19918;-67
2024/04/02 13:10:25;;;;;;;;;;;;;;;;;;4986795;28;19957;-67
2024/04/02 13:12:50;;;;;;;;;;;;;;;;;;4993163;28;19926;-67
2024/04/02 13:15:15;;;;;;;;;;;;;;;;;;4987371;28;19926;-66
2024/04/02 13:17:40;;;;;;;;;;;;;;;;;;4988266;28;20311;-67
2024/04/02 13:20:07;;;;;;;;;;;;;;;;;;4988170;28;19926;-67
2024/04/02 13:22:32;;;;;;;;;;;;;;;;;;4987367;28;19921;-67
2024/04/02 13:24:58;;;;;;;;;;;;;;;;;;4986553;28;19929;-67
2024/04/02 13:27:23;;;;;;;;;;;;;;;;;;4986751;28;19926;-67
2024/04/02 13:29:49;;;;;;;;;;;;;;;;;;4988064;28;19918;-67
2024/04/02 13:32:14;;;;;;;;;;;;;;;;;;4986746;28;20279;-67
2024/04/02 13:34:39;;;;;;;;;;;;;;;;;;4987165;28;19929;-66
2024/04/02 13:37:05;;;;;;;;;;;;;;;;;;4987170;28;19972;-67
2024/04/02 13:39:30;;;;;;;;;;;;;;;;;;4987210;28;19918;-66
2024/04/02 13:41:55;;;;;;;;;;;;;;;;;;4987690;28;20064;-66
2024/04/02 13:44:20;;;;;;;;;;;;;;;;;;4986876;28;19917;-67
2024/04/02 13:46:45;;;;;;;;;;;;;;;;;;4988563;28;20402;-67
2024/04/02 13:49:10;;;;;;;;;;;;;;;;;;5018143;28;19922;-66
2024/04/02 13:51:35;;;;;;;;;;;;;;;;;;4995168;28;19926;-68
2024/04/02 13:54:00;;;;;;;;;;;;;;;;;;4993484;28;19983;-68
2024/04/02 13:56:25;;;;;;;;;;;;;;;;;;4989603;28;19965;-67
2024/04/02 13:58:51;;;;;;;;;;;;;;;;;;4994404;28;19918;-67
2024/04/02 14:01:16;;;;;;;;;;;;;;;;;;4985814;28;21896;-67
2024/04/02 14:03:41;;;;;;;;;;;;;;;;;;4991972;28;20433;-67
2024/04/02 14:06:06;;;;;;;;;;;;;;;;;;4988571;28;19958;-67
2024/04/02 14:08:31;;;;;;;;;;;;;;;;;;4995216;28;19980;-67
2024/04/02 14:10:56;;;;;;;;;;;;;;;;;;4996778;28;20554;-67
2024/04/02 14:13:22;;;;;;;;;;;;;;;;;;4992813;28;19926;-67
2024/04/02 14:15:47;;;;;;;;;;;;;;;;;;4991209;28;20111;-67
2024/04/02 14:18:12;;;;;;;;;;;;;;;;;;4990302;28;19924;-67
2024/04/02 14:20:37;;;;;;;;;;;;;;;;;;4990963;28;20389;-67
2024/04/02 14:23:02;;;;;;;;;;;;;;;;;;4991246;28;19921;-67
2024/04/02 14:25:27;;;;;;;;;;;;;;;;;;4990865;28;19918;-67
2024/04/02 14:27:53;;;;;;;;;;;;;;;;;;4989885;28;19929;-67
2024/04/02 14:30:18;;;;;;;;;;;;;;;;;;4990084;28;19929;-68
2024/04/02 14:32:43;;;;;;;;;;;;;;;;;;4990219;28;19930;-67
2024/04/02 14:35:08;;;;;;;;;;;;;;;;;;4994791;28;20314;-68
2024/04/02 14:37:33;;;;;;;;;;;;;;;;;;4993138;28;20291;-68
2024/04/02 14:39:58;;;;;;;;;;;;;;;;;;4994355;28;19932;-68
2024/04/02 14:42:23;;;;;;;;;;;;;;;;;;4990492;28;20016;-69
2024/04/02 14:44:48;;;;;;;;;;;;;;;;;;4990329;28;19953;-69
2024/04/02 14:47:13;;;;;;;;;;;;;;;;;;4990479;28;19921;-68
2024/04/02 14:49:38;;;;;;;;;;;;;;;;;;4990348;28;19918;-69
2024/04/02 14:52:03;;;;;;;;;;;;;;;;;;4989704;28;19929;-69
2024/04/02 14:54:28;;;;;;;;;;;;;;;;;;4990102;28;20015;-69
2024/04/02 14:56:54;;;;;;;;;;;;;;;;;;4990909;28;20374;-68
2024/04/02 14:59:20;;;;;;;;;;;;;;;;;;4990083;28;19922;-69
2024/04/02 15:01:46;;;;;;;;;;;;;;;;;;4990735;28;19925;-69
2024/04/02 15:04:11;;;;;;;;;;;;;;;;;;4989351;28;20375;-69
2024/04/02 15:06:36;;;;;;;;;;;;;;;;;;4990626;28;19917;-69
2024/04/02 15:09:01;;;;;;;;;;;;;;;;;;4990417;28;19922;-68
2024/04/02 15:11:27;;;;;;;;;;;;;;;;;;4989889;28;19945;-68
2024/04/02 15:13:53;;;;;;;;;;;;;;;;;;4990119;28;19921;-68
2024/04/02 15:16:18;;;;;;;;;;;;;;;;;;4989616;28;20149;-69
2024/04/02 15:18:43;;;;;;;;;;;;;;;;;;4989667;28;19949;-69
2024/04/02 15:21:08;;;;;;;;;;;;;;;;;;4989742;28;19918;-68
2024/04/02 15:23:33;;;;;;;;;;;;;;;;;;4990173;28;19922;-68
2024/04/02 15:25:58;;;;;;;;;;;;;;;;;;4989686;28;19922;-68
2024/04/02 15:28:23;;;;;;;;;;;;;;;;;;4988726;28;19936;-69
2024/04/02 15:30:48;;;;;;;;;;;;;;;;;;4988448;28;20319;-68
2024/04/02 15:33:13;;;;;;;;;;;;;;;;;;4989688;28;19926;-68
2024/04/02 15:35:38;;;;;;;;;;;;;;;;;;4989850;28;20017;-69
2024/04/02 15:38:04;;;;;;;;;;;;;;;;;;4991777;28;19918;-69
2024/04/02 15:40:29;;;;;;;;;;;;;;;;;;4988543;28;19918;-70
2024/04/02 15:42:54;;;;;;;;;;;;;;;;;;4989725;28;20025;-70
2024/04/02 15:45:21;;;;;;;;;;;;;;;;;;4989234;28;19960;-70
2024/04/02 15:47:47;;;;;;;;;;;;;;;;;;4989337;28;19976;-70
2024/04/02 15:50:12;;;;;;;;;;;;;;;;;;4988574;28;19918;-69
2024/04/02 15:52:38;;;;;;;;;;;;;;;;;;4989693;28;19922;-69
2024/04/02 15:55:03;;;;;;;;;;;;;;;;;;4989378;28;19922;-69
2024/04/02 15:57:28;;;;;;;;;;;;;;;;;;4989239;28;19945;-69
2024/04/02 15:59:53;;;;;;;;;;;;;;;;;;4989457;28;20408;-68
2024/04/02 16:02:18;;;;;;;;;;;;;;;;;;4988762;28;19975;-69
2024/04/02 16:04:43;;;;;;;;;;;;;;;;;;4989095;28;20379;-69
2024/04/02 16:07:09;;;;;;;;;;;;;;;;;;4989374;28;20122;-69
2024/04/02 16:09:34;;;;;;;;;;;;;;;;;;4988801;28;20398;-70
2024/04/02 16:11:59;;;;;;;;;;;;;;;;;;4989386;28;19929;-68
2024/04/02 16:14:25;;;;;;;;;;;;;;;;;;4988344;28;19921;-69
2024/04/02 16:16:50;;;;;;;;;;;;;;;;;;4989123;28;19922;-69
2024/04/02 16:19:15;;;;;;;;;;;;;;;;;;4988724;28;19929;-68
2024/04/02 16:21:44;;;;;;;;;;;;;;;;;;4989318;28;19922;-68
2024/04/02 16:24:09;;;;;;;;;;;;;;;;;;4987381;28;19930;-68
2024/04/02 16:26:36;;;;;;;;;;;;;;;;;;4988993;28;19934;-68
2024/04/02 16:29:01;;;;;;;;;;;;;;;;;;4989236;28;20333;-69
2024/04/02 16:31:27;;;;;;;;;;;;;;;;;;4986648;28;19930;-69
2024/04/02 16:33:52;;;;;;;;;;;;;;;;;;4986353;28;19934;-67
2024/04/02 16:36:17;;;;;;;;;;;;;;;;;;4990039;28;19926;-67